Time;durP1;ratioP1;P1;durP2;ratioP2;P2;SDS_P1;SDS_P2;PMS_P1;PMS_P2;Temp;Humidity;BMP_temperature;BMP_pressure;BME280_temperature;BME280_humidity;BME280_pressure;Samples;Min_cycle;Max_cycle;Signal;HPM_P1;HPM_P2
2022/07/17 00:01:15;;;;;;;4.25;2.60;;;;;;;27.14;44.66;100856.54;1741281;82;21030;-81
2022/07/17 00:03:41;;;;;;;2.90;2.35;;;;;;;27.15;44.71;100860.15;1740593;81;21697;-81
2022/07/17 00:06:08;;;;;;;3.37;2.50;;;;;;;27.14;44.72;100857.94;1740644;81;21046;-81
2022/07/17 00:08:34;;;;;;;4.70;2.67;;;;;;;27.14;44.73;100860.73;1749604;82;21166;-81
2022/07/17 00:11:01;;;;;;;3.33;2.62;;;;;;;27.14;44.71;100855.73;1749446;82;21039;-81
2022/07/17 00:13:27;;;;;;;4.10;2.70;;;;;;;27.14;44.75;100853.75;1749417;81;22084;-81
2022/07/17 00:15:54;;;;;;;2.98;2.37;;;;;;;27.13;44.76;100847.93;1749523;81;21035;-81
2022/07/17 00:18:20;;;;;;;3.02;2.47;;;;;;;27.14;44.79;100845.95;1749268;82;21049;-81
2022/07/17 00:20:47;;;;;;;4.45;2.92;;;;;;;27.14;44.79;100848.74;1749835;81;21510;-81
2022/07/17 00:23:13;;;;;;;3.85;2.45;;;;;;;27.12;44.83;100849.09;1749766;81;21071;-80
2022/07/17 00:25:41;;;;;;;3.45;2.50;;;;;;;27.13;44.83;100845.72;1741253;82;21952;-81
2022/07/17 00:28:07;;;;;;;3.20;2.70;;;;;;;27.13;44.84;100848.52;1730508;82;21085;-81
2022/07/17 00:30:34;;;;;;;3.50;2.60;;;;;;;27.14;44.85;100854.33;1713804;82;21041;-81
2022/07/17 00:33:00;;;;;;;3.58;2.72;;;;;;;27.14;44.85;100855.73;1740436;82;21108;-82
2022/07/17 00:35:26;;;;;;;4.97;2.83;;;;;;;27.13;44.89;100856.89;1730843;82;21128;-81
2022/07/17 00:37:53;;;;;;;3.50;2.58;;;;;;;27.12;44.92;100860.27;1721223;82;21749;-81
2022/07/17 00:40:21;;;;;;;4.00;2.58;;;;;;;27.12;44.91;100865.85;1712512;83;21075;-81
2022/07/17 00:42:53;;;;;;;3.40;2.42;;;;;;;27.12;44.90;100862.25;1712686;82;21013;-82
2022/07/17 00:45:24;;;;;;;3.33;2.55;;;;;;;27.13;44.93;100870.86;1712675;82;20977;-81
2022/07/17 00:47:58;;;;;;;4.25;2.70;;;;;;;27.13;44.95;100870.86;1712433;82;20975;-83
2022/07/17 00:50:31;;;;;;;3.70;2.80;;;;;;;27.12;44.96;100865.85;1710948;82;20960;-82
2022/07/17 00:52:58;;;;;;;3.77;2.80;;;;;;;27.12;44.97;100868.64;1712680;83;21051;-81
2022/07/17 00:55:24;;;;;;;3.05;2.65;;;;;;;27.12;44.96;100870.63;1712928;83;21066;-81
2022/07/17 00:57:51;;;;;;;3.37;2.95;;;;;;;27.11;44.98;100865.66;1712923;82;21599;-81
2022/07/17 01:00:23;;;;;;;2.95;2.50;;;;;;;27.11;44.99;100864.25;1712730;82;21036;-81
2022/07/17 01:02:52;;;;;;;3.50;2.72;;;;;;;27.11;45.02;100865.66;1712906;82;21103;-82
2022/07/17 01:05:19;;;;;;;3.22;2.70;;;;;;;27.11;45.05;100862.86;1712576;82;21130;-81
2022/07/17 01:07:46;;;;;;;4.83;3.17;;;;;;;27.11;45.04;100859.25;1705177;82;21080;-81
2022/07/17 01:10:12;;;;;;;3.58;2.70;;;;;;;27.11;45.04;100862.86;1702844;83;21060;-81
2022/07/17 01:12:40;;;;;;;3.62;3.17;;;;;;;27.12;45.08;100864.45;1702952;82;20993;-81
2022/07/17 01:15:09;;;;;;;3.37;3.08;;;;;;;27.11;45.06;100860.06;1730912;81;21122;-81
2022/07/17 01:17:35;;;;;;;3.92;2.62;;;;;;;27.11;45.10;100854.48;1732067;81;21021;-81
2022/07/17 01:20:08;;;;;;;3.35;3.05;;;;;;;27.12;45.10;100856.66;1732025;81;21043;-81
2022/07/17 01:22:48;;;;;;;3.40;3.10;;;;;;;27.11;45.09;100860.65;1731893;82;21044;-82
2022/07/17 01:25:14;;;;;;;3.33;2.80;;;;;;;27.11;45.13;100865.66;1734079;80;21420;-81
2022/07/17 01:27:41;;;;;;;3.62;3.25;;;;;;;27.11;45.13;100870.42;1751118;81;21066;-81
2022/07/17 01:30:09;;;;;;;4.35;2.80;;;;;;;27.11;45.13;100864.84;1751530;81;21066;-81
2022/07/17 01:32:37;;;;;;;3.20;2.67;;;;;;;27.10;45.16;100864.02;1751236;81;21110;-81
2022/07/17 01:35:04;;;;;;;3.30;3.00;;;;;;;27.10;45.19;100858.44;1750775;80;21082;-81
2022/07/17 01:37:31;;;;;;;3.40;2.87;;;;;;;27.11;45.21;100869.84;1751270;81;21010;-82
2022/07/17 01:39:58;;;;;;;2.98;2.67;;;;;;;27.11;45.22;100869.03;1751094;80;21086;-81
2022/07/17 01:42:25;;;;;;;3.10;2.70;;;;;;;27.10;45.23;100865.42;1750771;80;21047;-81
2022/07/17 01:44:52;;;;;;;3.75;3.15;;;;;;;27.10;45.24;100864.02;1750759;80;21117;-82
2022/07/17 01:47:19;;;;;;;3.35;3.02;;;;;;;27.10;45.25;100868.21;1751083;80;21054;-81
2022/07/17 01:49:49;;;;;;;3.22;2.92;;;;;;;27.10;45.26;100871.59;1751040;80;21540;-81
2022/07/17 01:52:15;;;;;;;;;;;;;;;27.09;45.29;100867.98;1753834;81;21187;-81
2022/07/17 01:54:42;;;;;;;3.50;2.85;;;;;;;27.10;45.33;100866.00;1750860;80;20178;-81
2022/07/17 01:57:08;;;;;;;3.58;3.08;;;;;;;27.08;45.24;100866.34;1750857;80;21078;-81
2022/07/17 01:59:35;;;;;;;3.85;2.92;;;;;;;27.08;45.25;100871.12;1751221;81;21506;-81
2022/07/17 02:02:02;;;;;;;4.37;2.90;;;;;;;27.09;45.26;100869.95;1751203;81;21090;-81
2022/07/17 02:04:28;;;;;;;4.37;2.75;;;;;;;27.09;45.30;100877.75;1750974;81;21116;-80
2022/07/17 02:07:01;;;;;;;3.62;3.17;;;;;;;27.09;45.31;100881.94;1749626;81;21104;-81
2022/07/17 02:09:27;;;;;;;3.55;2.90;;;;;;;27.08;45.32;100878.91;1749670;81;21036;-81
2022/07/17 02:11:53;;;;;;;4.12;3.30;;;;;;;27.09;45.33;100880.55;1749326;81;21122;-82
2022/07/17 02:14:20;;;;;;;3.22;2.92;;;;;;;27.09;45.37;100881.94;1749692;81;21013;-81
2022/07/17 02:16:46;;;;;;;4.10;2.92;;;;;;;27.10;45.36;100883.57;1749481;81;21068;-81
2022/07/17 02:19:13;;;;;;;4.30;3.10;;;;;;;27.10;45.39;100887.77;1749351;82;21092;-81
2022/07/17 02:21:39;;;;;;;3.80;3.05;;;;;;;27.09;45.39;100885.31;1749551;81;21500;-81
2022/07/17 02:24:06;;;;;;;4.25;3.30;;;;;;;27.10;45.42;100884.16;1749684;81;21084;-81
2022/07/17 02:26:38;;;;;;;4.10;3.05;;;;;;;27.09;45.43;100887.53;1749526;80;21047;-81
2022/07/17 02:29:05;;;;;;;3.85;3.22;;;;;;;27.10;45.43;100886.95;1754213;80;21172;-81
2022/07/17 02:31:31;;;;;;;3.52;3.22;;;;;;;27.09;45.43;100890.32;1754064;80;21539;-81
2022/07/17 02:33:57;;;;;;;3.15;2.83;;;;;;;27.10;45.44;100884.16;1753818;80;21043;-81
2022/07/17 02:36:24;;;;;;;4.85;3.10;;;;;;;27.10;45.48;100889.73;1753999;81;21071;-81
2022/07/17 02:38:50;;;;;;;4.10;3.37;;;;;;;27.09;45.48;100886.71;1754438;80;21391;-81
2022/07/17 02:41:17;;;;;;;3.87;2.83;;;;;;;27.10;45.50;100894.74;1753906;80;22074;-81
2022/07/17 02:43:43;;;;;;;3.45;2.90;;;;;;;27.09;45.51;100893.11;1753989;80;20996;-81
2022/07/17 02:46:10;;;;;;;3.40;3.00;;;;;;;27.09;45.50;100891.72;1726227;81;21099;-81
2022/07/17 02:48:36;;;;;;;4.22;3.50;;;;;;;27.09;45.50;100892.30;1753832;80;21597;-82
2022/07/17 02:51:03;;;;;;;3.58;3.20;;;;;;;27.10;45.54;100903.12;1754105;80;21685;-82
2022/07/17 02:53:29;;;;;;;4.03;3.17;;;;;;;27.10;45.57;100900.91;1753876;81;21503;-81
2022/07/17 02:55:55;;;;;;;3.85;3.20;;;;;;;27.09;45.57;100902.89;1753881;80;21011;-82
2022/07/17 02:58:22;;;;;;;3.87;3.30;;;;;;;27.09;45.58;100904.28;1753952;80;21074;-82
2022/07/17 03:00:48;;;;;;;3.92;3.40;;;;;;;27.10;45.58;100903.70;1755907;80;21472;-81
2022/07/17 03:03:15;;;;;;;3.87;3.47;;;;;;;27.09;45.58;100912.66;1758520;80;21066;-81
2022/07/17 03:05:41;;;;;;;3.72;2.87;;;;;;;27.10;45.62;100910.69;1758756;81;20998;-82
2022/07/17 03:08:08;;;;;;;4.65;3.60;;;;;;;27.09;45.61;100914.06;1756789;81;21071;-81
2022/07/17 03:10:34;;;;;;;4.33;3.40;;;;;;;27.09;45.65;100908.47;1756894;80;21024;-81
2022/07/17 03:13:01;;;;;;;3.98;3.02;;;;;;;27.09;45.63;100912.66;1756976;81;21024;-81
2022/07/17 03:15:27;;;;;;;4.12;3.08;;;;;;;27.09;45.63;100911.84;1757057;81;21538;-81
2022/07/17 03:17:54;;;;;;;6.67;3.05;;;;;;;27.09;45.65;100916.04;1756696;80;21036;-81
2022/07/17 03:20:20;;;;;;;3.47;3.17;;;;;;;27.10;45.67;100921.86;1756871;81;20978;-80
2022/07/17 03:22:53;;;;;;;3.45;3.12;;;;;;;27.09;45.67;100919.64;1757202;81;21482;-81
2022/07/17 03:25:19;;;;;;;5.53;3.30;;;;;;;27.09;45.68;100923.84;1756682;81;21036;-81
2022/07/17 03:27:46;;;;;;;4.05;3.35;;;;;;;27.09;45.70;100923.84;1756654;81;21424;-81
2022/07/17 03:30:12;;;;;;;4.75;3.40;;;;;;;27.09;45.71;100921.63;1725934;82;21192;-82
2022/07/17 03:32:38;;;;;;;6.58;3.33;;;;;;;27.08;45.71;100928.37;1756846;81;20952;-81
2022/07/17 03:35:07;;;;;;;4.70;3.02;;;;;;;27.09;45.72;100935.59;1756893;81;21028;-81
2022/07/17 03:37:33;;;;;;;3.75;3.35;;;;;;;27.08;45.70;100938.96;1752319;81;21038;-81
2022/07/17 03:40:00;;;;;;;4.08;3.25;;;;;;;27.10;45.70;100941.41;1743427;80;21045;-81
2022/07/17 03:42:26;;;;;;;4.00;3.35;;;;;;;27.09;45.72;100937.80;1743647;80;21698;-81
2022/07/17 03:44:52;;;;;;;4.00;3.12;;;;;;;27.08;45.72;100944.55;1743618;80;21046;-81
2022/07/17 03:47:19;;;;;;;3.70;3.05;;;;;;;27.08;45.72;100944.55;1743205;81;21037;-81
2022/07/17 03:49:45;;;;;;;3.90;3.30;;;;;;;27.09;45.74;100947.57;1744119;81;21069;-82
2022/07/17 03:52:11;;;;;;;3.98;3.37;;;;;;;27.09;45.75;100951.77;1743854;80;21480;-82
2022/07/17 03:54:38;;;;;;;3.77;3.30;;;;;;;27.09;45.74;100960.72;1743693;81;21806;-81
2022/07/17 03:57:04;;;;;;;4.10;3.35;;;;;;;27.09;45.76;100957.34;1716388;82;21100;-81
2022/07/17 03:59:30;;;;;;;3.80;3.27;;;;;;;27.09;45.75;100964.91;1743803;80;21076;-81
2022/07/17 04:01:57;;;;;;;3.55;3.10;;;;;;;27.09;45.75;100965.73;1743430;80;21014;-82
2022/07/17 04:04:23;;;;;;;3.47;3.17;;;;;;;27.08;45.76;100969.68;1743865;80;21540;-82
2022/07/17 04:06:50;;;;;;;3.45;3.10;;;;;;;27.08;45.76;100971.08;1749108;81;21091;-81
2022/07/17 04:09:16;;;;;;;3.90;3.10;;;;;;;27.09;45.76;100970.50;1756720;81;21091;-81
2022/07/17 04:11:42;;;;;;;3.42;3.08;;;;;;;27.10;45.76;100972.13;1757102;81;21036;-80
2022/07/17 04:14:09;;;;;;;3.95;3.17;;;;;;;27.10;45.76;100972.13;1747623;80;21599;-82
2022/07/17 04:16:35;;;;;;;3.40;2.87;;;;;;;27.09;45.77;100973.29;1743641;82;21056;-81
2022/07/17 04:19:07;;;;;;;4.62;3.27;;;;;;;27.08;45.77;100982.83;1743914;80;21492;-81
2022/07/17 04:21:34;;;;;;;3.95;3.55;;;;;;;27.08;45.79;100982.83;1716295;82;21049;-81
2022/07/17 04:24:00;;;;;;;4.97;3.40;;;;;;;27.09;45.80;100988.65;1743544;80;21026;-81
2022/07/17 04:26:27;;;;;;;3.50;3.20;;;;;;;27.09;45.77;100990.86;1745737;81;21120;-81
2022/07/17 04:28:53;;;;;;;3.05;2.65;;;;;;;27.09;45.78;100995.05;1754419;80;21047;-81
2022/07/17 04:31:19;;;;;;;4.95;3.17;;;;;;;27.09;45.80;100998.42;1754309;80;21021;-81
2022/07/17 04:33:46;;;;;;;4.03;3.20;;;;;;;27.08;45.79;101012.97;1754335;80;21053;-81
2022/07/17 04:36:12;;;;;;;3.58;3.08;;;;;;;27.09;45.77;101023.56;1754405;81;21057;-81
2022/07/17 04:38:39;;;;;;;3.35;2.90;;;;;;;27.09;45.80;101015.18;1754033;81;21100;-82
2022/07/17 04:41:05;;;;;;;3.35;2.92;;;;;;;27.09;45.78;101015.18;1754450;80;20937;-82
2022/07/17 04:43:32;;;;;;;3.47;2.92;;;;;;;27.09;45.77;101022.98;1754406;80;21251;-81
2022/07/17 04:45:58;;;;;;;3.45;2.95;;;;;;;27.09;45.78;101027.17;1753800;80;21080;-82
2022/07/17 04:48:24;;;;;;;3.10;2.80;;;;;;;27.10;45.75;101031.59;1754096;80;21729;-81
2022/07/17 04:50:51;;;;;;;3.80;3.40;;;;;;;27.10;45.76;101031.59;1753369;80;21104;-81
2022/07/17 04:53:17;;;;;;;3.98;3.33;;;;;;;27.09;45.74;101036.13;1753321;80;21031;-81
2022/07/17 04:55:44;;;;;;;3.83;3.37;;;;;;;27.10;45.73;101037.76;1753929;81;21245;-81
2022/07/17 04:58:12;;;;;;;3.60;2.90;;;;;;;27.10;45.71;101046.95;1753780;80;21446;-81
2022/07/17 05:00:38;;;;;;;3.87;3.17;;;;;;;27.09;45.71;101046.72;1752918;80;21613;-82
2022/07/17 05:03:05;;;;;;;4.05;3.35;;;;;;;27.09;45.69;101048.11;1754114;81;21043;-82
2022/07/17 05:05:40;;;;;;;3.92;3.37;;;;;;;27.10;45.69;101050.33;1753588;81;21546;-81
2022/07/17 05:08:05;;;;;;;3.65;2.67;;;;;;;27.09;45.68;101051.48;1751817;80;21732;-81
2022/07/17 05:10:32;;;;;;;3.52;3.05;;;;;;;27.09;45.67;101048.70;1751814;81;21036;-81
2022/07/17 05:13:05;;;;;;;3.87;3.27;;;;;;;27.09;45.65;101048.70;1751865;81;21478;-81
2022/07/17 05:15:31;;;;;;;4.50;3.17;;;;;;;27.10;45.66;101056.73;1751790;81;21070;-81
2022/07/17 05:17:57;;;;;;;3.72;3.33;;;;;;;27.10;45.63;101051.72;1752027;81;21076;-81
2022/07/17 05:20:24;;;;;;;4.37;3.25;;;;;;;27.09;45.63;101057.89;1752147;81;21231;-81
2022/07/17 05:22:50;;;;;;;4.12;2.87;;;;;;;27.10;45.62;101056.73;1752199;81;21064;-81
2022/07/17 05:25:17;;;;;;;4.20;3.30;;;;;;;27.10;45.60;101056.73;1752620;81;21582;-81
2022/07/17 05:27:44;;;;;;;4.35;3.15;;;;;;;27.09;45.58;101059.28;1753395;80;21475;-81
2022/07/17 05:30:10;;;;;;;3.45;3.00;;;;;;;27.10;45.56;101061.50;1753773;80;21068;-81
2022/07/17 05:32:43;;;;;;;3.45;3.15;;;;;;;27.11;45.55;101067.32;1754102;80;21020;-82
2022/07/17 05:35:09;;;;;;;5.55;3.50;;;;;;;27.11;45.54;101068.72;1754151;80;20988;-82
2022/07/17 05:37:36;;;;;;;3.50;2.70;;;;;;;27.10;45.51;101074.88;1753918;81;21134;-81
2022/07/17 05:40:04;;;;;;;3.77;2.95;;;;;;;27.10;45.49;101073.48;1754001;81;21550;-81
2022/07/17 05:42:30;;;;;;;3.87;3.02;;;;;;;27.11;45.49;101077.09;1754110;80;21581;-82
2022/07/17 05:44:58;;;;;;;3.20;2.90;;;;;;;27.11;45.45;101072.91;1753762;80;21522;-82
2022/07/17 05:47:25;;;;;;;3.37;2.85;;;;;;;27.10;45.42;101077.67;1754124;81;21039;-81
2022/07/17 05:49:52;;;;;;;3.22;2.67;;;;;;;27.10;45.42;101080.47;1754098;80;21047;-81
2022/07/17 05:52:18;;;;;;;3.65;3.00;;;;;;;27.11;45.41;101078.49;1753716;80;21044;-81
2022/07/17 05:54:44;;;;;;;4.40;3.33;;;;;;;27.10;45.39;101080.47;1753693;80;21103;-81
2022/07/17 05:57:11;;;;;;;3.17;2.75;;;;;;;27.11;45.39;101082.68;1753981;80;21063;-81
2022/07/17 05:59:37;;;;;;;2.87;2.55;;;;;;;27.11;45.35;101079.89;1753597;80;21446;-81
2022/07/17 06:02:04;;;;;;;4.28;3.10;;;;;;;27.12;45.36;101087.08;1753707;80;20988;-81
2022/07/17 06:04:30;;;;;;;3.60;2.83;;;;;;;27.11;45.36;101087.69;1759500;80;21304;-81
2022/07/17 06:06:57;;;;;;;6.92;3.40;;;;;;;27.11;45.32;101086.29;1759062;81;21068;-82
2022/07/17 06:09:23;;;;;;;3.40;2.87;;;;;;;27.11;45.31;101089.08;1756751;81;21515;-81
2022/07/17 06:11:50;;;;;;;3.10;2.75;;;;;;;27.12;45.31;101094.06;1756607;81;21064;-80
2022/07/17 06:14:16;;;;;;;4.37;3.00;;;;;;;27.12;45.30;101089.87;1756568;81;21540;-81
2022/07/17 06:16:42;;;;;;;3.02;2.70;;;;;;;27.11;45.26;101086.87;1756850;81;21005;-81
2022/07/17 06:19:09;;;;;;;3.77;3.10;;;;;;;27.12;45.26;101092.66;1756732;81;21122;-81
2022/07/17 06:21:35;;;;;;;4.35;3.20;;;;;;;27.11;45.25;101096.06;1756096;81;21113;-82
2022/07/17 06:24:02;;;;;;;4.25;3.20;;;;;;;27.11;45.23;101098.86;1756718;81;21138;-81
2022/07/17 06:26:28;;;;;;;3.60;2.77;;;;;;;27.11;45.22;101094.67;1756692;81;21083;-81
2022/07/17 06:28:55;;;;;;;3.62;2.70;;;;;;;27.12;45.19;101094.06;1756447;81;21047;-81
2022/07/17 06:31:22;;;;;;;2.90;2.67;;;;;;;27.12;45.19;101094.06;1756700;81;21562;-81
2022/07/17 06:33:48;;;;;;;3.05;2.72;;;;;;;27.12;45.19;101094.06;1756618;81;21314;-80
2022/07/17 06:36:14;;;;;;;3.08;2.77;;;;;;;27.12;45.15;101092.08;1756147;81;21269;-81
2022/07/17 06:38:41;;;;;;;3.30;3.00;;;;;;;27.12;45.15;101095.45;1756696;81;21565;-81
2022/07/17 06:41:07;;;;;;;3.80;2.80;;;;;;;27.12;45.15;101089.29;1755615;81;21138;-81
2022/07/17 06:43:34;;;;;;;3.22;2.70;;;;;;;27.12;45.13;101088.47;1753330;80;21083;-81
2022/07/17 06:46:00;;;;;;;3.20;2.90;;;;;;;27.12;45.12;101087.89;1753760;80;21652;-81
2022/07/17 06:48:26;;;;;;;3.85;2.60;;;;;;;27.13;45.10;101087.31;1753801;80;21064;-81
2022/07/17 06:50:53;;;;;;;2.90;2.47;;;;;;;27.13;45.10;101089.52;1753770;80;20967;-81
2022/07/17 06:53:19;;;;;;;3.67;2.90;;;;;;;27.14;45.07;101091.16;1753941;80;21063;-81
2022/07/17 06:55:45;;;;;;;3.52;2.70;;;;;;;27.14;45.08;101089.76;1754200;81;21024;-81
2022/07/17 06:58:12;;;;;;;3.02;2.70;;;;;;;27.14;45.09;101089.76;1753786;80;21057;-81
2022/07/17 07:00:39;;;;;;;3.50;2.80;;;;;;;27.14;45.09;101091.16;1754153;80;21573;-81
2022/07/17 07:03:05;;;;;;;3.12;2.72;;;;;;;27.15;45.08;101090.58;1754098;80;21051;-81
2022/07/17 07:05:32;;;;;;;3.92;2.75;;;;;;;27.15;45.09;101091.97;1753937;81;21763;-82
2022/07/17 07:07:58;;;;;;;3.10;2.58;;;;;;;27.15;45.07;101091.97;1756519;80;21051;-82
2022/07/17 07:10:25;;;;;;;3.77;2.65;;;;;;;27.15;45.07;101095.58;1757155;80;21111;-81
2022/07/17 07:12:51;;;;;;;2.92;2.55;;;;;;;27.16;45.04;101092.99;1756364;81;20984;-81
2022/07/17 07:15:18;;;;;;;3.22;2.65;;;;;;;27.16;45.04;101092.17;1756973;81;21060;-82
2022/07/17 07:17:45;;;;;;;3.60;2.92;;;;;;;27.16;45.02;101097.18;1759343;81;21108;-82
2022/07/17 07:20:11;;;;;;;3.52;2.70;;;;;;;27.16;45.02;101091.59;1761485;80;21061;-82
2022/07/17 07:22:38;;;;;;;3.00;2.70;;;;;;;27.16;45.01;101088.80;1761496;80;21161;-81
2022/07/17 07:25:05;;;;;;;3.60;2.50;;;;;;;27.17;45.00;101091.83;1761677;81;21040;-82
2022/07/17 07:27:32;;;;;;;3.20;2.58;;;;;;;27.18;44.98;101089.28;1759148;81;21098;-81
2022/07/17 07:29:58;;;;;;;3.52;2.72;;;;;;;27.18;44.96;101079.50;1752177;81;21039;-82
2022/07/17 07:32:25;;;;;;;3.15;2.80;;;;;;;27.19;44.94;101085.91;1752677;81;21043;-82
2022/07/17 07:34:51;;;;;;;3.00;2.55;;;;;;;27.18;44.93;101085.08;1752145;81;21062;-81
2022/07/17 07:37:18;;;;;;;3.35;2.90;;;;;;;27.19;44.94;101085.91;1730695;82;21527;-82
2022/07/17 07:39:44;;;;;;;4.12;2.50;;;;;;;27.19;44.92;101085.32;1752406;81;21082;-81
2022/07/17 07:42:11;;;;;;;3.65;2.60;;;;;;;27.20;44.89;101086.14;1730518;82;21045;-81
2022/07/17 07:44:37;;;;;;;5.08;3.10;;;;;;;27.20;44.87;101091.11;1752316;81;21130;-81
2022/07/17 07:47:04;;;;;;;3.27;2.50;;;;;;;27.20;44.87;101091.72;1730655;82;21523;-81
2022/07/17 07:49:30;;;;;;;3.95;2.87;;;;;;;27.21;44.84;101090.53;1751869;81;21034;-81
2022/07/17 07:52:03;;;;;;;2.80;2.42;;;;;;;27.20;44.82;101087.53;1730434;82;21079;-82
2022/07/17 07:54:30;;;;;;;4.08;2.80;;;;;;;27.21;44.81;101089.95;1729978;82;21041;-82
2022/07/17 07:56:56;;;;;;;3.15;2.42;;;;;;;27.21;44.81;101087.16;1729846;83;21767;-82
2022/07/17 07:59:32;;;;;;;4.30;3.00;;;;;;;27.21;44.79;101091.34;1729782;83;21835;-81
2022/07/17 08:01:58;;;;;;;3.42;2.35;;;;;;;27.21;44.78;101091.34;1714590;82;21754;-82
2022/07/17 08:04:24;;;;;;;3.02;2.60;;;;;;;27.22;44.75;101094.95;1719974;83;21100;-82
2022/07/17 08:06:51;;;;;;;3.87;2.67;;;;;;;27.23;44.74;101089.03;1719656;83;21104;-82
2022/07/17 08:09:23;;;;;;;3.22;2.60;;;;;;;27.22;44.73;101093.56;1718762;83;21523;-81
2022/07/17 08:11:50;;;;;;;3.60;2.85;;;;;;;27.23;44.71;101093.22;1718549;83;21884;-82
2022/07/17 08:14:16;;;;;;;3.87;3.10;;;;;;;27.23;44.70;101093.22;1718504;83;21103;-82
2022/07/17 08:16:43;;;;;;;3.27;2.77;;;;;;;27.24;44.68;101088.45;1718800;83;21108;-82
2022/07/17 08:19:09;;;;;;;2.60;2.40;;;;;;;27.24;44.68;101090.63;1718562;83;22108;-82
2022/07/17 08:21:42;;;;;;;2.50;2.25;;;;;;;27.25;44.66;101095.05;1718585;83;21021;-82
2022/07/17 08:24:08;;;;;;;2.70;2.50;;;;;;;27.24;44.65;101089.23;1718792;83;21150;-81
2022/07/17 08:26:34;;;;;;;2.85;2.30;;;;;;;27.25;44.64;101088.65;1718233;83;21087;-80
2022/07/17 08:29:01;;;;;;;3.22;2.40;;;;;;;27.26;44.62;101093.08;1705692;83;21087;-82
2022/07/17 08:31:27;;;;;;;2.70;2.50;;;;;;;27.26;44.60;101083.30;1688155;85;21063;-81
2022/07/17 08:33:54;;;;;;;2.98;2.17;;;;;;;27.26;44.57;101085.52;1687976;85;21095;-82
2022/07/17 08:36:20;;;;;;;2.75;2.10;;;;;;;27.25;44.57;101082.48;1688021;84;22084;-81
2022/07/17 08:38:53;;;;;;;3.62;2.62;;;;;;;27.27;44.54;101077.95;1688279;85;21092;-80
2022/07/17 08:41:22;;;;;;;3.20;2.50;;;;;;;27.26;44.56;101077.13;1687941;85;21100;-81
2022/07/17 08:43:48;;;;;;;3.00;2.50;;;;;;;27.28;44.53;101078.77;1688226;84;21092;-82
2022/07/17 08:46:14;;;;;;;3.02;2.65;;;;;;;27.27;44.52;101073.75;1668016;85;21079;-82
2022/07/17 08:48:41;;;;;;;3.65;2.83;;;;;;;27.28;44.51;101075.97;1668017;85;21154;-82
2022/07/17 08:51:08;;;;;;;3.05;2.40;;;;;;;27.28;44.50;101076.78;1688078;85;21056;-81
2022/07/17 08:53:35;;;;;;;3.75;2.52;;;;;;;27.27;44.50;101075.16;1688161;85;21032;-81
2022/07/17 08:56:01;;;;;;;2.87;2.47;;;;;;;27.28;44.46;101078.97;1667886;85;21091;-82
2022/07/17 08:58:28;;;;;;;3.35;2.47;;;;;;;27.28;44.45;101071.98;1688203;85;21071;-81
2022/07/17 09:00:54;;;;;;;3.12;2.40;;;;;;;27.29;44.42;101074.20;1688317;85;21797;-82
2022/07/17 09:03:23;;;;;;;3.40;2.30;;;;;;;27.30;44.37;101072.22;1687912;85;21577;-82
2022/07/17 09:05:56;;;;;;;2.67;2.02;;;;;;;27.30;44.25;101082.00;1687903;83;21543;-82
2022/07/17 09:08:24;;;;;;;3.60;2.30;;;;;;;27.31;44.21;101067.68;1705213;84;21077;-81
2022/07/17 09:10:53;;;;;;;3.65;2.20;;;;;;;27.30;44.12;101075.83;1705075;84;21044;-81
2022/07/17 09:13:29;;;;;;;3.00;2.40;;;;;;;27.31;44.11;101077.46;1705328;84;21104;-81
2022/07/17 09:16:01;;;;;;;3.20;2.50;;;;;;;27.31;44.07;101071.88;1705020;84;21112;-81
2022/07/17 09:18:28;;;;;;;3.70;2.30;;;;;;;27.31;44.05;101066.28;1708651;82;21053;-82
2022/07/17 09:20:59;;;;;;;3.65;2.60;;;;;;;27.31;44.09;101067.68;1705262;84;21088;-81
2022/07/17 09:23:26;;;;;;;2.80;2.30;;;;;;;27.32;44.10;101067.09;1704870;83;21524;-81
2022/07/17 09:25:55;;;;;;;3.37;2.42;;;;;;;27.32;44.09;101058.14;1705231;83;21127;-81
2022/07/17 09:28:21;;;;;;;2.95;2.25;;;;;;;27.31;44.05;101052.31;1705200;84;21058;-81
2022/07/17 09:30:50;;;;;;;2.87;2.33;;;;;;;27.31;44.07;101053.71;1707051;84;21037;-81
2022/07/17 09:33:19;;;;;;;4.28;2.42;;;;;;;27.32;44.10;101047.55;1707254;83;21532;-81
2022/07/17 09:35:52;;;;;;;3.12;2.37;;;;;;;27.31;44.09;101060.70;1707384;84;21057;-82
2022/07/17 09:38:36;;;;;;;2.15;1.95;;;;;;;27.31;44.03;101062.67;1706803;83;21674;-82
2022/07/17 09:41:18;;;;;;;3.58;2.22;;;;;;;27.31;43.97;101046.73;1704542;84;21130;-82
2022/07/17 09:43:53;;;;;;;3.15;2.27;;;;;;;27.31;43.85;101052.31;1699499;83;21038;-82
2022/07/17 09:46:30;;;;;;;3.50;2.12;;;;;;;27.32;43.79;101049.75;1699628;82;21121;-82
2022/07/17 09:48:59;;;;;;;3.08;2.50;;;;;;;27.32;43.73;101048.94;1698854;84;21553;-82
2022/07/17 09:51:41;;;;;;;2.92;2.22;;;;;;;27.32;43.71;101047.55;1699416;83;21184;-82
2022/07/17 09:54:08;;;;;;;2.65;2.20;;;;;;;27.33;43.65;101049.17;1698385;83;21472;-80
2022/07/17 09:56:35;;;;;;;2.60;2.30;;;;;;;27.32;43.67;101044.75;1699585;83;22109;-80
2022/07/17 09:59:08;;;;;;;3.27;2.42;;;;;;;27.32;43.71;101049.75;1699602;84;21366;-80
2022/07/17 10:01:35;;;;;;;2.83;2.15;;;;;;;27.32;43.74;101044.17;1698839;84;21066;-80
2022/07/17 10:04:02;;;;;;;2.90;2.10;;;;;;;27.32;43.78;101046.96;1699683;83;21512;-80
2022/07/17 10:06:28;;;;;;;3.05;2.25;;;;;;;27.32;43.80;101048.94;1698557;84;21020;-80
2022/07/17 10:08:55;;;;;;;3.15;2.30;;;;;;;27.32;43.79;101043.35;1694281;84;21099;-79
2022/07/17 10:11:32;;;;;;;2.80;2.17;;;;;;;27.32;43.67;101047.55;1694550;84;21123;-80
2022/07/17 10:14:05;;;;;;;3.10;2.10;;;;;;;27.32;43.51;101039.98;1694566;84;21048;-80
2022/07/17 10:16:33;;;;;;;3.45;2.58;;;;;;;27.33;43.40;101043.59;1694597;84;21551;-80
2022/07/17 10:19:00;;;;;;;3.62;2.22;;;;;;;27.34;43.27;101046.58;1703872;82;21473;-80
2022/07/17 10:21:29;;;;;;;4.17;1.92;;;;;;;27.32;43.17;101038.58;1703979;82;21022;-80
2022/07/17 10:24:01;;;;;;;3.15;2.10;;;;;;;27.34;43.12;101034.83;1704136;84;21509;-80
2022/07/17 10:26:44;;;;;;;3.20;1.95;;;;;;;27.35;43.03;101035.64;1704103;82;21058;-80
2022/07/17 10:29:37;;;;;;;2.45;2.10;;;;;;;27.35;43.03;101027.26;1702738;82;21042;-80
2022/07/17 10:32:09;;;;;;;3.17;2.50;;;;;;;27.34;43.03;101025.05;1753909;81;21064;-81
2022/07/17 10:34:47;;;;;;;2.47;2.27;;;;;;;27.33;43.01;101022.02;1751176;80;21006;-81
2022/07/17 10:37:26;;;;;;;2.35;2.12;;;;;;;27.33;43.07;101019.22;1753866;80;21041;-80
2022/07/17 10:40:00;;;;;;;3.50;2.60;;;;;;;27.33;42.94;101012.86;1753575;81;21041;-81
2022/07/17 10:42:59;;;;;;;2.52;1.82;;;;;;;27.33;42.88;101013.64;1753905;80;21130;-82
2022/07/17 10:45:38;;;;;;;2.70;2.00;;;;;;;27.31;42.79;101009.01;1752202;80;21053;-81
2022/07/17 10:48:16;;;;;;;2.50;2.00;;;;;;;27.33;42.60;101011.45;1753673;80;21030;-82
2022/07/17 10:50:45;;;;;;;4.83;2.10;;;;;;;27.31;42.54;101010.41;1727294;81;21052;-82
2022/07/17 10:53:26;;;;;;;2.47;1.98;;;;;;;27.33;42.40;100998.89;1753982;80;22171;-82
2022/07/17 10:56:03;;;;;;;3.25;2.15;;;;;;;27.33;42.21;101001.68;1712099;82;21140;-82
2022/07/17 10:58:40;;;;;;;2.62;1.92;;;;;;;27.33;42.01;100989.11;1712233;82;21015;-82
2022/07/17 11:01:19;;;;;;;2.30;2.10;;;;;;;27.33;41.92;101010.84;1712192;83;21058;-83
2022/07/17 11:03:53;;;;;;;1.62;1.52;;;;;;;27.33;41.83;100997.48;1711887;82;21101;-83
2022/07/17 11:06:32;;;;;;;3.65;1.90;;;;;;;27.34;41.67;100991.52;1713785;82;21091;-82
2022/07/17 11:09:10;;;;;;;3.08;2.40;;;;;;;27.33;41.80;100988.49;1731231;82;21541;-83
2022/07/17 11:11:43;;;;;;;2.62;2.25;;;;;;;27.34;41.94;100990.70;1720895;83;21067;-83
2022/07/17 11:14:21;;;;;;;2.75;2.27;;;;;;;27.35;42.24;100990.94;1726464;83;21091;-83
2022/07/17 11:16:54;;;;;;;2.75;2.20;;;;;;;27.33;42.19;100990.50;1720899;83;21529;-83
2022/07/17 11:19:34;;;;;;;2.75;2.02;;;;;;;27.33;42.00;100983.52;1721200;82;21135;-83
2022/07/17 11:22:02;;;;;;;2.67;2.13;;;;;;;27.33;42.01;100983.52;1721233;82;21568;-83
2022/07/17 11:24:44;;;;;;;2.72;2.12;;;;;;;27.33;42.03;100982.13;1721379;82;20996;-84
2022/07/17 11:27:13;;;;;;;3.08;2.12;;;;;;;27.33;42.02;100982.91;1720901;83;21008;-83
2022/07/17 11:29:40;;;;;;;2.95;2.17;;;;;;;27.32;42.12;100988.29;1725246;83;21024;-82